sensor_id;sensor_type;location;lat;lon;timestamp;temperature;humidity
74416;SHT31;62850;42.428;25.618;2022-08-20T00:00:33;25.71;58.30
74416;SHT31;62850;42.428;25.618;2022-08-20T00:03:15;25.70;58.27
74416;SHT31;62850;42.428;25.618;2022-08-20T00:05:48;25.64;58.61
74416;SHT31;62850;42.428;25.618;2022-08-20T00:08:16;25.64;58.54
74416;SHT31;62850;42.428;25.618;2022-08-20T00:10:43;25.60;58.56
74416;SHT31;62850;42.428;25.618;2022-08-20T00:13:12;25.62;58.60
74416;SHT31;62850;42.428;25.618;2022-08-20T00:15:39;25.65;58.60
74416;SHT31;62850;42.428;25.618;2022-08-20T00:18:06;25.67;58.34
74416;SHT31;62850;42.428;25.618;2022-08-20T00:20:35;25.60;58.45
74416;SHT31;62850;42.428;25.618;2022-08-20T00:23:02;25.60;58.54
74416;SHT31;62850;42.428;25.618;2022-08-20T00:25:28;25.64;58.34
74416;SHT31;62850;42.428;25.618;2022-08-20T00:27:55;25.62;58.59
74416;SHT31;62850;42.428;25.618;2022-08-20T00:30:21;25.55;58.51
74416;SHT31;62850;42.428;25.618;2022-08-20T00:32:56;25.58;58.59
74416;SHT31;62850;42.428;25.618;2022-08-20T00:35:26;25.54;58.38
74416;SHT31;62850;42.428;25.618;2022-08-20T00:37:52;25.54;58.36
74416;SHT31;62850;42.428;25.618;2022-08-20T00:40:22;25.57;58.32
74416;SHT31;62850;42.428;25.618;2022-08-20T00:42:54;25.50;58.52
74416;SHT31;62850;42.428;25.618;2022-08-20T00:45:24;25.51;58.56
74416;SHT31;62850;42.428;25.618;2022-08-20T00:47:50;25.55;58.80
74416;SHT31;62850;42.428;25.618;2022-08-20T00:50:20;25.50;58.59
74416;SHT31;62850;42.428;25.618;2022-08-20T00:52:48;25.51;58.49
74416;SHT31;62850;42.428;25.618;2022-08-20T00:55:16;25.54;58.44
74416;SHT31;62850;42.428;25.618;2022-08-20T00:57:46;25.45;58.60
74416;SHT31;62850;42.428;25.618;2022-08-20T01:00:16;25.48;58.50
74416;SHT31;62850;42.428;25.618;2022-08-20T01:02:43;25.48;58.53
74416;SHT31;62850;42.428;25.618;2022-08-20T01:05:09;25.43;58.72
74416;SHT31;62850;42.428;25.618;2022-08-20T01:07:36;25.43;58.66
74416;SHT31;62850;42.428;25.618;2022-08-20T01:10:06;25.41;58.67
74416;SHT31;62850;42.428;25.618;2022-08-20T01:12:32;25.47;58.55
74416;SHT31;62850;42.428;25.618;2022-08-20T01:14:59;25.40;58.72
74416;SHT31;62850;42.428;25.618;2022-08-20T01:17:28;25.31;58.95
74416;SHT31;62850;42.428;25.618;2022-08-20T01:20:07;25.31;58.85
74416;SHT31;62850;42.428;25.618;2022-08-20T01:22:45;25.26;58.94
74416;SHT31;62850;42.428;25.618;2022-08-20T01:25:52;25.30;58.96
74416;SHT31;62850;42.428;25.618;2022-08-20T01:28:23;25.38;58.67
74416;SHT31;62850;42.428;25.618;2022-08-20T01:30:49;25.37;59.00
74416;SHT31;62850;42.428;25.618;2022-08-20T01:33:17;25.43;59.07
74416;SHT31;62850;42.428;25.618;2022-08-20T01:35:43;25.35;58.89
74416;SHT31;62850;42.428;25.618;2022-08-20T01:38:08;25.38;58.97
74416;SHT31;62850;42.428;25.618;2022-08-20T01:43:22;25.27;59.15
74416;SHT31;62850;42.428;25.618;2022-08-20T01:45:49;25.20;59.11
74416;SHT31;62850;42.428;25.618;2022-08-20T01:48:15;25.24;58.89
74416;SHT31;62850;42.428;25.618;2022-08-20T01:50:48;25.23;58.98
74416;SHT31;62850;42.428;25.618;2022-08-20T01:53:33;25.19;59.13
74416;SHT31;62850;42.428;25.618;2022-08-20T01:56:01;25.22;59.08
74416;SHT31;62850;42.428;25.618;2022-08-20T01:58:27;25.17;59.21
74416;SHT31;62850;42.428;25.618;2022-08-20T02:00:55;25.19;59.19
74416;SHT31;62850;42.428;25.618;2022-08-20T02:03:21;25.19;59.22
74416;SHT31;62850;42.428;25.618;2022-08-20T02:05:47;25.20;59.78
74416;SHT31;62850;42.428;25.618;2022-08-20T02:08:13;25.16;59.25
74416;SHT31;62850;42.428;25.618;2022-08-20T02:10:38;25.12;59.41
74416;SHT31;62850;42.428;25.618;2022-08-20T02:13:05;25.13;59.35
74416;SHT31;62850;42.428;25.618;2022-08-20T02:15:33;25.16;59.19
74416;SHT31;62850;42.428;25.618;2022-08-20T02:18:03;25.14;59.18
74416;SHT31;62850;42.428;25.618;2022-08-20T02:20:29;25.19;59.12
74416;SHT31;62850;42.428;25.618;2022-08-20T02:22:57;25.22;59.09
74416;SHT31;62850;42.428;25.618;2022-08-20T02:25:26;25.22;59.07
74416;SHT31;62850;42.428;25.618;2022-08-20T02:27:54;25.20;59.14
74416;SHT31;62850;42.428;25.618;2022-08-20T02:30:28;25.14;59.32
74416;SHT31;62850;42.428;25.618;2022-08-20T02:32:55;25.13;59.32
74416;SHT31;62850;42.428;25.618;2022-08-20T02:35:21;25.13;59.38
74416;SHT31;62850;42.428;25.618;2022-08-20T02:37:47;25.07;59.72
74416;SHT31;62850;42.428;25.618;2022-08-20T02:40:15;25.10;60.02
74416;SHT31;62850;42.428;25.618;2022-08-20T02:42:41;25.17;59.64
74416;SHT31;62850;42.428;25.618;2022-08-20T02:45:10;25.14;59.57
74416;SHT31;62850;42.428;25.618;2022-08-20T02:47:36;25.09;59.60
74416;SHT31;62850;42.428;25.618;2022-08-20T02:50:03;25.12;59.61
74416;SHT31;62850;42.428;25.618;2022-08-20T02:52:29;25.13;59.45
74416;SHT31;62850;42.428;25.618;2022-08-20T02:54:55;25.12;59.49
74416;SHT31;62850;42.428;25.618;2022-08-20T02:57:20;25.03;59.64
74416;SHT31;62850;42.428;25.618;2022-08-20T02:59:46;25.04;59.59
74416;SHT31;62850;42.428;25.618;2022-08-20T03:02:13;25.06;59.56
74416;SHT31;62850;42.428;25.618;2022-08-20T03:04:39;25.03;59.74
74416;SHT31;62850;42.428;25.618;2022-08-20T03:07:04;25.03;59.67
74416;SHT31;62850;42.428;25.618;2022-08-20T03:09:30;25.00;59.76
74416;SHT31;62850;42.428;25.618;2022-08-20T03:11:56;24.93;60.06
74416;SHT31;62850;42.428;25.618;2022-08-20T03:14:22;24.89;60.10
74416;SHT31;62850;42.428;25.618;2022-08-20T03:16:48;24.86;60.19
74416;SHT31;62850;42.428;25.618;2022-08-20T03:19:13;24.86;60.23
74416;SHT31;62850;42.428;25.618;2022-08-20T03:21:39;24.85;60.15
74416;SHT31;62850;42.428;25.618;2022-08-20T03:24:05;24.86;60.01
74416;SHT31;62850;42.428;25.618;2022-08-20T03:26:30;24.83;60.30
74416;SHT31;62850;42.428;25.618;2022-08-20T03:28:56;24.96;60.45
74416;SHT31;62850;42.428;25.618;2022-08-20T03:31:22;24.97;60.63
74416;SHT31;62850;42.428;25.618;2022-08-20T03:33:47;24.90;60.62
74416;SHT31;62850;42.428;25.618;2022-08-20T03:36:13;24.83;60.86
74416;SHT31;62850;42.428;25.618;2022-08-20T03:38:39;24.72;60.89
74416;SHT31;62850;42.428;25.618;2022-08-20T03:41:04;24.69;60.96
74416;SHT31;62850;42.428;25.618;2022-08-20T03:43:30;24.65;61.16
74416;SHT31;62850;42.428;25.618;2022-08-20T03:45:56;24.65;60.94
74416;SHT31;62850;42.428;25.618;2022-08-20T03:48:21;24.58;61.36
74416;SHT31;62850;42.428;25.618;2022-08-20T03:50:48;24.62;61.33
74416;SHT31;62850;42.428;25.618;2022-08-20T03:53:15;24.66;61.66
74416;SHT31;62850;42.428;25.618;2022-08-20T03:55:43;24.54;62.04
74416;SHT31;62850;42.428;25.618;2022-08-20T03:58:12;24.31;62.41
74416;SHT31;62850;42.428;25.618;2022-08-20T04:03:04;24.34;62.78
74416;SHT31;62850;42.428;25.618;2022-08-20T04:05:30;24.34;62.71
74416;SHT31;62850;42.428;25.618;2022-08-20T04:07:59;24.25;63.12
74416;SHT31;62850;42.428;25.618;2022-08-20T04:10:26;24.34;62.99
74416;SHT31;62850;42.428;25.618;2022-08-20T04:12:51;24.38;62.95
74416;SHT31;62850;42.428;25.618;2022-08-20T04:15:17;24.41;63.03
74416;SHT31;62850;42.428;25.618;2022-08-20T04:17:46;24.36;63.05
74416;SHT31;62850;42.428;25.618;2022-08-20T04:20:16;24.41;63.03
74416;SHT31;62850;42.428;25.618;2022-08-20T04:22:43;24.48;63.11
74416;SHT31;62850;42.428;25.618;2022-08-20T04:25:10;24.61;62.77
74416;SHT31;62850;42.428;25.618;2022-08-20T04:27:37;24.68;62.90
74416;SHT31;62850;42.428;25.618;2022-08-20T04:30:05;24.72;62.60
74416;SHT31;62850;42.428;25.618;2022-08-20T04:32:31;24.73;62.70
74416;SHT31;62850;42.428;25.618;2022-08-20T04:34:58;24.92;62.29
74416;SHT31;62850;42.428;25.618;2022-08-20T04:37:24;25.00;62.30
74416;SHT31;62850;42.428;25.618;2022-08-20T04:39:50;25.09;62.09
74416;SHT31;62850;42.428;25.618;2022-08-20T04:42:35;25.12;61.54
74416;SHT31;62850;42.428;25.618;2022-08-20T04:45:02;25.20;61.53
74416;SHT31;62850;42.428;25.618;2022-08-20T04:47:29;25.37;61.29
74416;SHT31;62850;42.428;25.618;2022-08-20T04:49:55;25.34;61.95
74416;SHT31;62850;42.428;25.618;2022-08-20T04:52:25;25.41;61.61
74416;SHT31;62850;42.428;25.618;2022-08-20T04:54:52;25.44;61.61
74416;SHT31;62850;42.428;25.618;2022-08-20T04:57:21;25.54;61.31
74416;SHT31;62850;42.428;25.618;2022-08-20T04:59:49;25.67;61.10
74416;SHT31;62850;42.428;25.618;2022-08-20T05:02:16;25.68;60.94
74416;SHT31;62850;42.428;25.618;2022-08-20T05:04:42;25.67;61.01
74416;SHT31;62850;42.428;25.618;2022-08-20T05:07:10;25.78;60.92
74416;SHT31;62850;42.428;25.618;2022-08-20T05:09:35;25.88;60.70
74416;SHT31;62850;42.428;25.618;2022-08-20T05:12:01;25.95;60.18
74416;SHT31;62850;42.428;25.618;2022-08-20T05:14:26;25.91;59.61
74416;SHT31;62850;42.428;25.618;2022-08-20T05:16:53;25.91;59.48
74416;SHT31;62850;42.428;25.618;2022-08-20T05:19:23;25.99;59.50
74416;SHT31;62850;42.428;25.618;2022-08-20T05:21:48;26.05;59.46
74416;SHT31;62850;42.428;25.618;2022-08-20T05:24:16;25.99;59.92
74416;SHT31;62850;42.428;25.618;2022-08-20T05:26:42;26.05;59.70
74416;SHT31;62850;42.428;25.618;2022-08-20T05:29:07;26.13;59.32
74416;SHT31;62850;42.428;25.618;2022-08-20T05:31:33;26.22;58.52
74416;SHT31;62850;42.428;25.618;2022-08-20T05:34:01;26.19;58.67
74416;SHT31;62850;42.428;25.618;2022-08-20T05:36:26;26.28;58.25
74416;SHT31;62850;42.428;25.618;2022-08-20T05:38:52;26.36;58.06
74416;SHT31;62850;42.428;25.618;2022-08-20T05:41:18;26.39;57.60
74416;SHT31;62850;42.428;25.618;2022-08-20T05:43:45;26.35;57.74
74416;SHT31;62850;42.428;25.618;2022-08-20T05:46:10;26.49;57.01
74416;SHT31;62850;42.428;25.618;2022-08-20T05:48:37;26.61;56.93
74416;SHT31;62850;42.428;25.618;2022-08-20T05:51:03;26.63;56.53
74416;SHT31;62850;42.428;25.618;2022-08-20T05:53:28;26.71;56.85
74416;SHT31;62850;42.428;25.618;2022-08-20T05:55:54;26.73;56.84
74416;SHT31;62850;42.428;25.618;2022-08-20T05:58:28;26.81;56.10
74416;SHT31;62850;42.428;25.618;2022-08-20T06:00:57;26.80;55.55
74416;SHT31;62850;42.428;25.618;2022-08-20T06:03:23;26.86;55.42
74416;SHT31;62850;42.428;25.618;2022-08-20T06:06:08;26.87;55.05
74416;SHT31;62850;42.428;25.618;2022-08-20T06:08:35;26.90;55.53
74416;SHT31;62850;42.428;25.618;2022-08-20T06:11:01;27.02;55.69
74416;SHT31;62850;42.428;25.618;2022-08-20T06:13:27;27.14;55.29
74416;SHT31;62850;42.428;25.618;2022-08-20T06:15:54;27.22;55.05
74416;SHT31;62850;42.428;25.618;2022-08-20T06:18:20;27.19;55.11
74416;SHT31;62850;42.428;25.618;2022-08-20T06:20:45;27.31;55.01
74416;SHT31;62850;42.428;25.618;2022-08-20T06:23:11;27.35;54.77
74416;SHT31;62850;42.428;25.618;2022-08-20T06:25:38;27.48;53.57
74416;SHT31;62850;42.428;25.618;2022-08-20T06:28:04;27.52;53.54
74416;SHT31;62850;42.428;25.618;2022-08-20T06:30:30;27.60;54.48
74416;SHT31;62850;42.428;25.618;2022-08-20T06:32:56;27.70;53.93
74416;SHT31;62850;42.428;25.618;2022-08-20T06:35:22;27.82;53.57
74416;SHT31;62850;42.428;25.618;2022-08-20T06:37:47;27.82;53.46
74416;SHT31;62850;42.428;25.618;2022-08-20T06:40:20;27.87;53.44
74416;SHT31;62850;42.428;25.618;2022-08-20T06:42:48;27.97;53.24
74416;SHT31;62850;42.428;25.618;2022-08-20T06:45:19;27.96;53.32
74416;SHT31;62850;42.428;25.618;2022-08-20T06:47:45;28.11;53.13
74416;SHT31;62850;42.428;25.618;2022-08-20T06:50:14;28.16;53.21
74416;SHT31;62850;42.428;25.618;2022-08-20T06:52:41;28.14;53.21
74416;SHT31;62850;42.428;25.618;2022-08-20T06:55:09;28.18;52.70
74416;SHT31;62850;42.428;25.618;2022-08-20T06:57:36;28.28;52.78
74416;SHT31;62850;42.428;25.618;2022-08-20T07:00:09;28.33;52.97
74416;SHT31;62850;42.428;25.618;2022-08-20T07:02:35;28.34;52.49
74416;SHT31;62850;42.428;25.618;2022-08-20T07:05:03;28.33;52.38
74416;SHT31;62850;42.428;25.618;2022-08-20T07:07:29;28.44;52.57
74416;SHT31;62850;42.428;25.618;2022-08-20T07:10:09;28.36;52.52
74416;SHT31;62850;42.428;25.618;2022-08-20T07:12:35;28.49;52.55
74416;SHT31;62850;42.428;25.618;2022-08-20T07:15:06;28.57;51.85
74416;SHT31;62850;42.428;25.618;2022-08-20T07:17:32;28.65;51.28
74416;SHT31;62850;42.428;25.618;2022-08-20T07:20:03;28.82;51.23
74416;SHT31;62850;42.428;25.618;2022-08-20T07:22:29;29.03;50.53
74416;SHT31;62850;42.428;25.618;2022-08-20T07:24:55;29.25;50.39
74416;SHT31;62850;42.428;25.618;2022-08-20T07:27:22;29.36;50.03
74416;SHT31;62850;42.428;25.618;2022-08-20T07:29:50;29.38;50.24
74416;SHT31;62850;42.428;25.618;2022-08-20T07:32:34;29.65;49.59
74416;SHT31;62850;42.428;25.618;2022-08-20T07:35:04;29.82;49.30
74416;SHT31;62850;42.428;25.618;2022-08-20T07:37:30;30.02;48.69
74416;SHT31;62850;42.428;25.618;2022-08-20T07:39:56;30.23;48.26
74416;SHT31;62850;42.428;25.618;2022-08-20T07:42:21;30.28;47.45
74416;SHT31;62850;42.428;25.618;2022-08-20T07:44:47;30.40;48.00
74416;SHT31;62850;42.428;25.618;2022-08-20T07:47:17;30.45;47.28
74416;SHT31;62850;42.428;25.618;2022-08-20T07:49:42;30.69;46.99
74416;SHT31;62850;42.428;25.618;2022-08-20T07:52:08;31.00;46.40
74416;SHT31;62850;42.428;25.618;2022-08-20T07:54:33;31.08;45.92
74416;SHT31;62850;42.428;25.618;2022-08-20T07:57:02;30.91;46.01
74416;SHT31;62850;42.428;25.618;2022-08-20T07:59:28;31.08;46.26
74416;SHT31;62850;42.428;25.618;2022-08-20T08:01:54;31.20;46.43
74416;SHT31;62850;42.428;25.618;2022-08-20T08:04:20;31.38;45.47
74416;SHT31;62850;42.428;25.618;2022-08-20T08:06:47;31.57;45.24
74416;SHT31;62850;42.428;25.618;2022-08-20T08:09:13;31.66;44.90
74416;SHT31;62850;42.428;25.618;2022-08-20T08:11:42;31.85;43.62
74416;SHT31;62850;42.428;25.618;2022-08-20T08:14:09;31.65;44.28
74416;SHT31;62850;42.428;25.618;2022-08-20T08:16:36;31.61;44.99
74416;SHT31;62850;42.428;25.618;2022-08-20T08:19:04;31.79;45.03
74416;SHT31;62850;42.428;25.618;2022-08-20T08:21:31;31.86;44.53
74416;SHT31;62850;42.428;25.618;2022-08-20T08:23:57;32.03;44.40
74416;SHT31;62850;42.428;25.618;2022-08-20T08:26:22;32.14;44.30
74416;SHT31;62850;42.428;25.618;2022-08-20T08:28:49;32.21;43.78
74416;SHT31;62850;42.428;25.618;2022-08-20T08:31:15;32.39;42.95
74416;SHT31;62850;42.428;25.618;2022-08-20T08:33:41;32.44;43.48
74416;SHT31;62850;42.428;25.618;2022-08-20T08:36:10;32.41;42.67
74416;SHT31;62850;42.428;25.618;2022-08-20T08:38:38;32.41;42.62
74416;SHT31;62850;42.428;25.618;2022-08-20T08:41:20;32.47;42.69
74416;SHT31;62850;42.428;25.618;2022-08-20T08:43:48;32.58;43.10
74416;SHT31;62850;42.428;25.618;2022-08-20T08:46:20;32.75;42.10
74416;SHT31;62850;42.428;25.618;2022-08-20T08:48:50;32.65;43.58
74416;SHT31;62850;42.428;25.618;2022-08-20T08:51:27;32.70;42.44
74416;SHT31;62850;42.428;25.618;2022-08-20T08:53:54;32.78;42.23
74416;SHT31;62850;42.428;25.618;2022-08-20T08:56:30;33.01;41.59
74416;SHT31;62850;42.428;25.618;2022-08-20T08:59:01;33.04;41.15
74416;SHT31;62850;42.428;25.618;2022-08-20T09:01:31;33.08;41.21
74416;SHT31;62850;42.428;25.618;2022-08-20T09:03:57;33.18;40.92
74416;SHT31;62850;42.428;25.618;2022-08-20T09:06:24;33.23;40.99
74416;SHT31;62850;42.428;25.618;2022-08-20T09:09:00;33.32;40.42
74416;SHT31;62850;42.428;25.618;2022-08-20T09:11:27;33.15;40.26
74416;SHT31;62850;42.428;25.618;2022-08-20T09:13:54;33.23;40.82
74416;SHT31;62850;42.428;25.618;2022-08-20T09:16:21;33.33;40.14
74416;SHT31;62850;42.428;25.618;2022-08-20T09:18:48;33.50;39.57
74416;SHT31;62850;42.428;25.618;2022-08-20T09:21:15;33.49;38.75
74416;SHT31;62850;42.428;25.618;2022-08-20T09:23:41;33.43;38.52
74416;SHT31;62850;42.428;25.618;2022-08-20T09:26:07;33.41;39.76
74416;SHT31;62850;42.428;25.618;2022-08-20T09:28:33;33.56;39.93
74416;SHT31;62850;42.428;25.618;2022-08-20T09:30:59;33.70;39.30
74416;SHT31;62850;42.428;25.618;2022-08-20T09:33:25;33.83;38.87
74416;SHT31;62850;42.428;25.618;2022-08-20T09:35:50;33.96;38.66
74416;SHT31;62850;42.428;25.618;2022-08-20T09:38:16;34.07;37.86
74416;SHT31;62850;42.428;25.618;2022-08-20T09:40:42;34.00;37.93
74416;SHT31;62850;42.428;25.618;2022-08-20T09:43:09;34.04;37.97
74416;SHT31;62850;42.428;25.618;2022-08-20T09:45:35;34.10;37.59
74416;SHT31;62850;42.428;25.618;2022-08-20T09:48:01;34.17;37.80
74416;SHT31;62850;42.428;25.618;2022-08-20T09:50:29;34.23;37.95
74416;SHT31;62850;42.428;25.618;2022-08-20T09:52:56;34.05;38.04
74416;SHT31;62850;42.428;25.618;2022-08-20T09:55:36;34.17;37.84
74416;SHT31;62850;42.428;25.618;2022-08-20T09:58:05;34.37;37.96
74416;SHT31;62850;42.428;25.618;2022-08-20T10:00:35;34.55;37.13
74416;SHT31;62850;42.428;25.618;2022-08-20T10:03:00;34.68;36.70
74416;SHT31;62850;42.428;25.618;2022-08-20T10:05:27;34.81;36.67
74416;SHT31;62850;42.428;25.618;2022-08-20T10:07:53;34.83;35.40
74416;SHT31;62850;42.428;25.618;2022-08-20T10:10:18;34.86;35.55
74416;SHT31;62850;42.428;25.618;2022-08-20T10:12:44;34.62;36.84
74416;SHT31;62850;42.428;25.618;2022-08-20T10:15:11;34.69;36.53
74416;SHT31;62850;42.428;25.618;2022-08-20T10:17:41;34.78;35.98
74416;SHT31;62850;42.428;25.618;2022-08-20T10:20:07;34.89;35.66
74416;SHT31;62850;42.428;25.618;2022-08-20T10:22:34;34.85;35.71
74416;SHT31;62850;42.428;25.618;2022-08-20T10:24:59;34.82;34.98
74416;SHT31;62850;42.428;25.618;2022-08-20T10:27:25;34.81;35.14
74416;SHT31;62850;42.428;25.618;2022-08-20T10:29:51;34.88;35.02
74416;SHT31;62850;42.428;25.618;2022-08-20T10:32:16;35.02;34.35
74416;SHT31;62850;42.428;25.618;2022-08-20T10:34:43;35.14;33.96
74416;SHT31;62850;42.428;25.618;2022-08-20T10:37:14;35.22;34.02
74416;SHT31;62850;42.428;25.618;2022-08-20T10:39:39;35.16;34.21
74416;SHT31;62850;42.428;25.618;2022-08-20T10:42:05;35.29;34.05
74416;SHT31;62850;42.428;25.618;2022-08-20T10:44:30;35.25;34.36
74416;SHT31;62850;42.428;25.618;2022-08-20T10:46:56;35.41;34.34
74416;SHT31;62850;42.428;25.618;2022-08-20T10:49:21;35.50;32.62
74416;SHT31;62850;42.428;25.618;2022-08-20T10:51:47;35.57;32.35
74416;SHT31;62850;42.428;25.618;2022-08-20T10:54:12;35.60;32.93
74416;SHT31;62850;42.428;25.618;2022-08-20T10:56:38;35.61;33.75
74416;SHT31;62850;42.428;25.618;2022-08-20T10:59:04;35.62;33.00
74416;SHT31;62850;42.428;25.618;2022-08-20T11:01:29;35.71;32.73
74416;SHT31;62850;42.428;25.618;2022-08-20T11:03:55;35.58;33.00
74416;SHT31;62850;42.428;25.618;2022-08-20T11:06:21;35.58;33.16
74416;SHT31;62850;42.428;25.618;2022-08-20T11:08:46;35.68;33.81
74416;SHT31;62850;42.428;25.618;2022-08-20T11:11:12;35.74;33.71
74416;SHT31;62850;42.428;25.618;2022-08-20T11:13:37;35.78;32.99
74416;SHT31;62850;42.428;25.618;2022-08-20T11:16:03;35.88;33.24
74416;SHT31;62850;42.428;25.618;2022-08-20T11:18:29;35.95;33.58
74416;SHT31;62850;42.428;25.618;2022-08-20T11:20:55;36.06;32.73
74416;SHT31;62850;42.428;25.618;2022-08-20T11:23:20;35.94;33.55
74416;SHT31;62850;42.428;25.618;2022-08-20T11:25:46;35.82;32.58
74416;SHT31;62850;42.428;25.618;2022-08-20T11:28:13;35.82;32.96
74416;SHT31;62850;42.428;25.618;2022-08-20T11:30:38;35.92;33.21
74416;SHT31;62850;42.428;25.618;2022-08-20T11:33:04;36.01;32.85
74416;SHT31;62850;42.428;25.618;2022-08-20T11:35:32;36.01;31.39
74416;SHT31;62850;42.428;25.618;2022-08-20T11:37:58;36.02;32.36
74416;SHT31;62850;42.428;25.618;2022-08-20T11:40:24;36.02;31.85
74416;SHT31;62850;42.428;25.618;2022-08-20T11:42:50;36.04;31.74
74416;SHT31;62850;42.428;25.618;2022-08-20T11:45:16;35.87;32.54
74416;SHT31;62850;42.428;25.618;2022-08-20T11:47:42;35.81;31.71
74416;SHT31;62850;42.428;25.618;2022-08-20T11:50:12;35.95;31.85
74416;SHT31;62850;42.428;25.618;2022-08-20T11:52:38;36.02;31.77
74416;SHT31;62850;42.428;25.618;2022-08-20T11:55:05;36.08;31.65
74416;SHT31;62850;42.428;25.618;2022-08-20T11:57:34;36.29;30.78
74416;SHT31;62850;42.428;25.618;2022-08-20T12:00:07;36.40;30.29
74416;SHT31;62850;42.428;25.618;2022-08-20T12:02:37;36.43;31.58
74416;SHT31;62850;42.428;25.618;2022-08-20T12:05:04;36.46;30.37
74416;SHT31;62850;42.428;25.618;2022-08-20T12:07:29;36.50;30.23
74416;SHT31;62850;42.428;25.618;2022-08-20T12:09:55;36.53;30.84
74416;SHT31;62850;42.428;25.618;2022-08-20T12:12:22;36.50;30.70
74416;SHT31;62850;42.428;25.618;2022-08-20T12:14:54;36.59;30.47
74416;SHT31;62850;42.428;25.618;2022-08-20T12:17:23;36.66;30.78
74416;SHT31;62850;42.428;25.618;2022-08-20T12:19:51;36.57;30.29
74416;SHT31;62850;42.428;25.618;2022-08-20T12:22:17;36.31;31.40
74416;SHT31;62850;42.428;25.618;2022-08-20T12:24:43;36.31;30.76
74416;SHT31;62850;42.428;25.618;2022-08-20T12:27:15;36.45;31.28
74416;SHT31;62850;42.428;25.618;2022-08-20T12:29:43;36.48;30.56
74416;SHT31;62850;42.428;25.618;2022-08-20T12:32:09;36.42;30.19
74416;SHT31;62850;42.428;25.618;2022-08-20T12:34:39;36.36;30.90
74416;SHT31;62850;42.428;25.618;2022-08-20T12:37:11;36.40;31.07
74416;SHT31;62850;42.428;25.618;2022-08-20T12:39:38;36.38;30.86
74416;SHT31;62850;42.428;25.618;2022-08-20T12:42:05;36.43;30.09
74416;SHT31;62850;42.428;25.618;2022-08-20T12:44:31;36.50;30.30
74416;SHT31;62850;42.428;25.618;2022-08-20T12:47:20;36.38;29.02
74416;SHT31;62850;42.428;25.618;2022-08-20T12:49:49;36.39;30.74
74416;SHT31;62850;42.428;25.618;2022-08-20T12:52:16;36.42;30.59
74416;SHT31;62850;42.428;25.618;2022-08-20T12:54:42;36.43;31.42
74416;SHT31;62850;42.428;25.618;2022-08-20T12:57:22;36.43;30.03
74416;SHT31;62850;42.428;25.618;2022-08-20T12:59:49;36.56;30.27
74416;SHT31;62850;42.428;25.618;2022-08-20T13:02:14;36.52;31.09
74416;SHT31;62850;42.428;25.618;2022-08-20T13:04:42;36.48;31.20
74416;SHT31;62850;42.428;25.618;2022-08-20T13:07:09;36.52;30.21
74416;SHT31;62850;42.428;25.618;2022-08-20T13:09:35;36.18;30.03
74416;SHT31;62850;42.428;25.618;2022-08-20T13:12:01;36.15;30.44
74416;SHT31;62850;42.428;25.618;2022-08-20T13:14:26;36.25;31.64
74416;SHT31;62850;42.428;25.618;2022-08-20T13:16:59;36.36;31.42
74416;SHT31;62850;42.428;25.618;2022-08-20T13:19:27;36.32;30.57
74416;SHT31;62850;42.428;25.618;2022-08-20T13:21:53;36.53;30.05
74416;SHT31;62850;42.428;25.618;2022-08-20T13:24:19;36.53;29.04
74416;SHT31;62850;42.428;25.618;2022-08-20T13:26:45;36.39;29.14
74416;SHT31;62850;42.428;25.618;2022-08-20T13:29:11;36.43;30.52
74416;SHT31;62850;42.428;25.618;2022-08-20T13:31:37;36.18;30.89
74416;SHT31;62850;42.428;25.618;2022-08-20T13:34:02;36.06;30.52
74416;SHT31;62850;42.428;25.618;2022-08-20T13:36:28;36.12;30.68
74416;SHT31;62850;42.428;25.618;2022-08-20T13:38:53;36.09;31.48
74416;SHT31;62850;42.428;25.618;2022-08-20T13:41:19;36.21;30.96
74416;SHT31;62850;42.428;25.618;2022-08-20T13:43:44;36.21;31.16
74416;SHT31;62850;42.428;25.618;2022-08-20T13:46:11;36.29;30.57
74416;SHT31;62850;42.428;25.618;2022-08-20T13:48:37;36.28;30.42
74416;SHT31;62850;42.428;25.618;2022-08-20T13:51:03;36.17;30.74
74416;SHT31;62850;42.428;25.618;2022-08-20T13:53:28;36.09;31.38
74416;SHT31;62850;42.428;25.618;2022-08-20T13:55:54;36.14;31.40
74416;SHT31;62850;42.428;25.618;2022-08-20T13:58:19;36.15;30.64
74416;SHT31;62850;42.428;25.618;2022-08-20T14:00:47;36.25;30.78
74416;SHT31;62850;42.428;25.618;2022-08-20T14:03:14;36.09;30.76
74416;SHT31;62850;42.428;25.618;2022-08-20T14:05:39;36.14;31.26
74416;SHT31;62850;42.428;25.618;2022-08-20T14:08:18;36.15;30.94
74416;SHT31;62850;42.428;25.618;2022-08-20T14:10:45;36.19;29.42
74416;SHT31;62850;42.428;25.618;2022-08-20T14:13:13;36.18;30.10
74416;SHT31;62850;42.428;25.618;2022-08-20T14:15:38;36.19;30.39
74416;SHT31;62850;42.428;25.618;2022-08-20T14:18:05;36.18;30.34
74416;SHT31;62850;42.428;25.618;2022-08-20T14:20:32;36.06;30.91
74416;SHT31;62850;42.428;25.618;2022-08-20T14:22:59;35.98;31.31
74416;SHT31;62850;42.428;25.618;2022-08-20T14:25:25;35.81;31.50
74416;SHT31;62850;42.428;25.618;2022-08-20T14:27:51;35.76;31.27
74416;SHT31;62850;42.428;25.618;2022-08-20T14:30:21;35.87;30.56
74416;SHT31;62850;42.428;25.618;2022-08-20T14:32:46;35.77;31.34
74416;SHT31;62850;42.428;25.618;2022-08-20T14:35:12;35.65;31.43
74416;SHT31;62850;42.428;25.618;2022-08-20T14:37:41;35.57;31.81
74416;SHT31;62850;42.428;25.618;2022-08-20T14:40:10;35.65;31.26
74416;SHT31;62850;42.428;25.618;2022-08-20T14:42:37;35.53;31.26
74416;SHT31;62850;42.428;25.618;2022-08-20T14:45:04;35.49;31.37
74416;SHT31;62850;42.428;25.618;2022-08-20T14:47:39;35.43;31.57
74416;SHT31;62850;42.428;25.618;2022-08-20T14:50:08;35.43;31.37
74416;SHT31;62850;42.428;25.618;2022-08-20T14:52:34;35.41;31.33
74416;SHT31;62850;42.428;25.618;2022-08-20T14:55:15;35.29;31.12
74416;SHT31;62850;42.428;25.618;2022-08-20T14:57:42;35.22;31.54
74416;SHT31;62850;42.428;25.618;2022-08-20T15:00:11;35.10;31.94
74416;SHT31;62850;42.428;25.618;2022-08-20T15:02:37;35.10;31.86
74416;SHT31;62850;42.428;25.618;2022-08-20T15:05:05;35.09;31.67
74416;SHT31;62850;42.428;25.618;2022-08-20T15:07:33;35.07;32.04
74416;SHT31;62850;42.428;25.618;2022-08-20T15:10:00;35.07;32.13
74416;SHT31;62850;42.428;25.618;2022-08-20T15:12:26;34.93;31.64
74416;SHT31;62850;42.428;25.618;2022-08-20T15:14:52;34.83;31.70
74416;SHT31;62850;42.428;25.618;2022-08-20T15:17:23;34.71;31.64
74416;SHT31;62850;42.428;25.618;2022-08-20T15:19:49;34.68;32.88
74416;SHT31;62850;42.428;25.618;2022-08-20T15:22:15;34.66;32.88